Time;durP1;ratioP1;P1;durP2;ratioP2;P2;SDS_P1;SDS_P2;PMS_P1;PMS_P2;Temp;Humidity;BMP_temperature;BMP_pressure;BME280_temperature;BME280_humidity;BME280_pressure;Samples;Min_cycle;Max_cycle;Signal;HPM_P1;HPM_P2
2023/05/26 00:01:14;;;;;;;0.35;0.35;;;10.90;99.90;;;;;;5011596;28;20046;-66
2023/05/26 00:03:48;;;;;;;1.88;1.38;;;10.90;99.90;;;;;;5010604;28;20569;-66
2023/05/26 00:06:15;;;;;;;3.05;0.82;;;10.90;99.90;;;;;;5035454;28;20061;-67
2023/05/26 00:08:40;;;;;;;7.22;1.58;;;10.90;99.90;;;;;;5006604;28;20121;-66
2023/05/26 00:11:07;;;;;;;6.53;2.50;;;10.80;99.90;;;;;;5015769;28;20133;-66
2023/05/26 00:13:33;;;;;;;0.73;0.73;;;10.90;99.90;;;;;;5043611;28;20078;-66
2023/05/26 00:16:00;;;;;;;0.20;0.20;;;10.80;99.90;;;;;;5005309;28;20462;-66
2023/05/26 00:18:26;;;;;;;0.63;0.63;;;10.80;99.90;;;;;;5009105;28;20564;-66
2023/05/26 00:20:55;;;;;;;0.00;0.00;;;10.80;99.90;;;;;;5003976;28;20046;-66
2023/05/26 00:23:21;;;;;;;0.82;0.82;;;10.90;99.90;;;;;;5010686;28;20034;-66
2023/05/26 00:25:48;;;;;;;0.30;0.30;;;10.90;99.90;;;;;;5029583;28;20482;-66
2023/05/26 00:28:14;;;;;;;0.22;0.22;;;10.80;99.90;;;;;;4998799;28;20437;-66
2023/05/26 00:30:39;;;;;;;0.10;0.10;;;10.80;99.90;;;;;;5011941;28;20100;-67
2023/05/26 00:33:05;;;;;;;0.25;0.25;;;10.80;99.90;;;;;;5010819;28;20138;-67
2023/05/26 00:35:30;;;;;;;1.65;1.15;;;10.80;99.90;;;;;;5009147;28;20046;-66
2023/05/26 00:37:56;;;;;;;0.10;0.10;;;10.80;99.90;;;;;;5017031;28;20044;-67
2023/05/26 00:40:22;;;;;;;1.90;1.48;;;10.70;99.90;;;;;;5006308;28;20046;-67
2023/05/26 00:42:47;;;;;;;2.13;1.17;;;10.70;99.90;;;;;;5017099;28;20081;-67
2023/05/26 00:45:13;;;;;;;0.65;0.65;;;10.70;99.90;;;;;;5008390;28;20052;-66
2023/05/26 00:47:38;;;;;;;4.68;1.48;;;10.70;99.90;;;;;;5000389;28;20038;-66
2023/05/26 00:50:06;;;;;;;2.40;2.20;;;10.70;99.90;;;;;;5004330;28;20070;-66
2023/05/26 00:52:33;;;;;;;0.17;0.17;;;10.70;99.90;;;;;;5007078;28;20956;-66
2023/05/26 00:54:59;;;;;;;0.10;0.10;;;10.60;99.90;;;;;;5016650;28;20045;-66
2023/05/26 00:57:27;;;;;;;0.40;0.40;;;10.60;99.90;;;;;;5000970;28;20034;-66
2023/05/26 00:59:56;;;;;;;0.40;0.40;;;10.60;99.90;;;;;;5000471;28;20050;-66
2023/05/26 01:02:22;;;;;;;0.10;0.10;;;10.60;99.90;;;;;;5004728;28;20029;-66
2023/05/26 01:04:52;;;;;;;0.88;0.88;;;10.60;99.90;;;;;;5013375;28;20041;-67
2023/05/26 01:07:18;;;;;;;0.32;0.32;;;10.60;99.90;;;;;;5009640;28;20100;-66
2023/05/26 01:09:44;;;;;;;0.40;0.40;;;10.50;99.90;;;;;;5009262;28;20505;-66
2023/05/26 01:12:15;;;;;;;0.10;0.10;;;10.50;99.90;;;;;;5004921;28;20050;-66
2023/05/26 01:14:40;;;;;;;1.33;0.98;;;10.50;99.90;;;;;;5000765;28;20045;-66
2023/05/26 01:17:19;;;;;;;8.68;1.45;;;10.50;99.90;;;;;;4999514;28;20104;-67
2023/05/26 01:20:07;;;;;;;0.40;0.40;;;10.60;99.90;;;;;;5009286;28;20537;-67
2023/05/26 01:22:48;;;;;;;0.40;0.40;;;10.50;99.90;;;;;;5013129;28;20148;-66
2023/05/26 01:25:37;;;;;;;0.10;0.10;;;10.50;99.90;;;;;;5002884;28;20562;-66
2023/05/26 01:28:13;;;;;;;0.65;0.65;;;10.50;99.90;;;;;;5020464;28;20383;-66
2023/05/26 01:30:39;;;;;;;1.45;0.65;;;10.40;99.90;;;;;;5009296;28;20460;-66
2023/05/26 01:33:05;;;;;;;1.20;1.10;;;10.50;99.90;;;;;;5037854;28;20046;-66
2023/05/26 01:35:31;;;;;;;0.10;0.10;;;10.40;99.90;;;;;;5005994;28;20421;-66
2023/05/26 01:37:58;;;;;;;4.40;0.65;;;10.40;99.90;;;;;;5004444;28;20137;-67
2023/05/26 01:40:24;;;;;;;0.57;0.57;;;10.50;99.90;;;;;;5002810;28;20073;-66
2023/05/26 01:43:18;;;;;;;0.10;0.10;;;10.40;99.90;;;;;;5008601;28;20361;-66
2023/05/26 01:45:52;;;;;;;19.38;2.58;;;10.40;99.90;;;;;;5003518;28;20401;-66
2023/05/26 01:48:18;;;;;;;2.20;2.00;;;10.40;99.90;;;;;;5004391;28;20054;-66
2023/05/26 01:50:56;;;;;;;0.10;0.10;;;10.40;99.90;;;;;;5008816;28;20073;-66
2023/05/26 01:53:26;;;;;;;3.08;1.17;;;10.40;99.90;;;;;;5002504;28;20068;-66
2023/05/26 01:55:56;;;;;;;0.13;0.13;;;10.30;99.90;;;;;;5006230;28;20037;-66
2023/05/26 01:58:24;;;;;;;0.73;0.57;;;10.30;99.90;;;;;;5022628;28;20481;-66
2023/05/26 02:00:50;;;;;;;0.28;0.28;;;10.20;99.90;;;;;;4998334;28;20128;-66
2023/05/26 02:03:16;;;;;;;0.17;0.17;;;10.20;99.90;;;;;;5006919;28;20117;-67
2023/05/26 02:05:42;;;;;;;0.20;0.20;;;10.20;99.90;;;;;;5010117;28;20499;-66
2023/05/26 02:08:10;;;;;;;4.38;0.63;;;10.20;99.90;;;;;;5002177;28;20047;-66
2023/05/26 02:10:36;;;;;;;0.10;0.10;;;10.30;99.90;;;;;;5008420;28;20053;-66
2023/05/26 02:13:02;;;;;;;1.00;0.55;;;10.20;99.90;;;;;;5006201;28;20434;-66
2023/05/26 02:15:28;;;;;;;0.10;0.10;;;10.20;99.90;;;;;;4998015;28;20128;-66
2023/05/26 02:17:54;;;;;;;22.38;2.00;;;10.20;99.90;;;;;;4999421;28;20149;-66
2023/05/26 02:20:20;;;;;;;0.52;0.52;;;10.20;99.90;;;;;;5032284;28;20049;-66
2023/05/26 02:22:46;;;;;;;0.40;0.40;;;10.20;99.90;;;;;;5002783;28;20052;-66
2023/05/26 02:25:11;;;;;;;4.47;1.63;;;10.10;99.90;;;;;;4990623;28;20048;-66
2023/05/26 02:27:37;;;;;;;12.07;1.17;;;10.10;99.90;;;;;;4999879;28;20089;-67
2023/05/26 02:30:03;;;;;;;0.45;0.45;;;10.20;99.90;;;;;;5005558;28;20100;-67
2023/05/26 02:32:30;;;;;;;1.17;1.13;;;10.20;99.90;;;;;;4997923;28;20057;-66
2023/05/26 02:34:58;;;;;;;8.50;1.17;;;10.20;99.90;;;;;;5008740;28;20046;-66
2023/05/26 02:37:26;;;;;;;0.30;0.30;;;10.20;99.90;;;;;;5002539;28;20046;-66
2023/05/26 02:39:52;;;;;;;0.43;0.43;;;10.20;99.90;;;;;;5013069;28;20049;-66
2023/05/26 02:42:18;;;;;;;0.20;0.20;;;10.20;99.90;;;;;;4999060;28;20046;-67
2023/05/26 02:44:43;;;;;;;0.10;0.10;;;10.20;99.90;;;;;;5006606;28;20111;-66
2023/05/26 02:47:09;;;;;;;2.08;1.02;;;10.20;99.90;;;;;;5005441;28;20168;-66
2023/05/26 02:49:35;;;;;;;0.00;0.00;;;10.20;99.90;;;;;;5003159;28;20054;-67
2023/05/26 02:52:00;;;;;;;1.08;0.68;;;10.20;99.90;;;;;;5024791;28;20069;-67
2023/05/26 02:54:26;;;;;;;0.20;0.20;;;10.20;99.90;;;;;;5012581;28;20568;-66
2023/05/26 02:56:51;;;;;;;0.30;0.30;;;10.10;99.90;;;;;;5009619;28;20038;-67
2023/05/26 02:59:17;;;;;;;0.20;0.20;;;10.20;99.90;;;;;;5006614;28;20478;-66
2023/05/26 03:01:43;;;;;;;0.10;0.10;;;10.20;99.90;;;;;;5012497;28;20443;-66
2023/05/26 03:04:08;;;;;;;7.47;1.30;;;10.10;99.90;;;;;;5012115;28;20088;-66
2023/05/26 03:06:34;;;;;;;0.20;0.20;;;10.10;99.90;;;;;;5002889;28;20057;-66
2023/05/26 03:09:00;;;;;;;0.10;0.10;;;10.10;99.90;;;;;;5002979;28;20513;-66
2023/05/26 03:11:26;;;;;;;0.00;0.00;;;10.10;99.90;;;;;;5003511;28;20042;-66
2023/05/26 03:13:52;;;;;;;0.10;0.10;;;10.00;99.90;;;;;;5024854;28;20053;-66
2023/05/26 03:16:19;;;;;;;0.10;0.10;;;10.10;99.90;;;;;;5006769;28;20394;-67
2023/05/26 03:18:45;;;;;;;3.40;3.17;;;10.00;99.90;;;;;;5008489;28;20050;-66
2023/05/26 03:21:10;;;;;;;0.70;0.52;;;10.00;99.90;;;;;;5006745;28;20764;-66
2023/05/26 03:23:36;;;;;;;0.65;0.65;;;10.00;99.90;;;;;;4999910;28;20477;-66
2023/05/26 03:26:02;;;;;;;3.60;1.40;;;10.00;99.90;;;;;;5006686;28;20050;-67
2023/05/26 03:28:27;;;;;;;0.10;0.10;;;10.00;99.90;;;;;;5010108;28;20053;-67
2023/05/26 03:30:53;;;;;;;0.10;0.10;;;10.10;99.90;;;;;;5001198;28;20050;-66
2023/05/26 03:33:19;;;;;;;0.47;0.45;;;10.00;99.90;;;;;;5006085;28;20038;-66
2023/05/26 03:35:44;;;;;;;0.00;0.00;;;10.00;99.90;;;;;;5010776;28;20045;-66
2023/05/26 03:38:10;;;;;;;1.10;1.05;;;10.00;99.90;;;;;;5007688;28;20038;-66
2023/05/26 03:40:36;;;;;;;0.98;0.55;;;10.00;99.90;;;;;;4998373;28;20042;-66
2023/05/26 03:43:01;;;;;;;0.47;0.40;;;10.10;99.90;;;;;;5010781;28;20052;-66
2023/05/26 03:45:27;;;;;;;0.43;0.43;;;10.10;99.90;;;;;;5010006;28;20088;-66
2023/05/26 03:47:53;;;;;;;0.10;0.10;;;10.10;99.90;;;;;;5011132;28;20033;-66
2023/05/26 03:50:18;;;;;;;0.10;0.10;;;10.00;99.90;;;;;;5005833;28;20046;-66
2023/05/26 03:52:45;;;;;;;2.83;1.65;;;10.00;99.90;;;;;;5009032;28;20046;-66
2023/05/26 03:55:11;;;;;;;0.10;0.10;;;10.00;99.90;;;;;;5010442;28;20441;-66
2023/05/26 03:57:37;;;;;;;1.45;1.17;;;10.00;99.90;;;;;;5003249;28;20043;-66
2023/05/26 04:00:05;;;;;;;0.00;0.00;;;10.00;99.90;;;;;;5006976;28;20049;-66
2023/05/26 04:02:31;;;;;;;0.10;0.10;;;10.00;99.90;;;;;;5012205;28;20042;-66
2023/05/26 04:04:56;;;;;;;0.20;0.20;;;10.00;99.90;;;;;;5001924;28;20363;-66
2023/05/26 04:07:22;;;;;;;0.17;0.17;;;10.00;99.90;;;;;;5004746;28;20052;-66
2023/05/26 04:09:48;;;;;;;0.03;0.03;;;10.00;99.90;;;;;;5026662;28;20046;-66
2023/05/26 04:12:13;;;;;;;0.98;0.90;;;10.00;99.90;;;;;;5006200;28;20056;-66
2023/05/26 04:14:39;;;;;;;0.10;0.10;;;10.00;99.90;;;;;;5009279;28;20042;-66
2023/05/26 04:17:04;;;;;;;0.10;0.10;;;10.00;99.90;;;;;;5005216;28;20050;-66
2023/05/26 04:19:30;;;;;;;0.10;0.10;;;10.00;99.90;;;;;;5008666;28;20144;-66
2023/05/26 04:21:57;;;;;;;0.35;0.35;;;10.00;99.90;;;;;;5034453;28;20508;-66
2023/05/26 04:24:23;;;;;;;0.40;0.40;;;10.10;99.90;;;;;;5004660;28;20042;-66
2023/05/26 04:26:52;;;;;;;1.45;1.20;;;10.10;99.90;;;;;;5005208;28;20046;-66
2023/05/26 04:29:18;;;;;;;4.18;2.53;;;10.10;99.90;;;;;;5003291;28;20084;-66
2023/05/26 04:31:44;;;;;;;28.35;1.85;;;10.20;99.90;;;;;;5009741;28;20101;-66
2023/05/26 04:34:10;;;;;;;0.10;0.10;;;10.20;99.90;;;;;;5011712;28;20054;-66
2023/05/26 04:36:39;;;;;;;0.85;0.85;;;10.20;99.90;;;;;;5001982;28;20042;-66
2023/05/26 04:39:08;;;;;;;0.17;0.17;;;10.30;99.90;;;;;;5000923;28;20049;-66
2023/05/26 04:41:33;;;;;;;0.10;0.10;;;10.30;99.90;;;;;;5017695;28;20042;-66
2023/05/26 04:44:00;;;;;;;0.08;0.08;;;10.30;99.90;;;;;;4998140;28;20046;-66
2023/05/26 04:46:28;;;;;;;0.70;0.70;;;10.30;99.90;;;;;;5025373;28;20053;-66
2023/05/26 04:48:56;;;;;;;0.57;0.57;;;10.40;99.90;;;;;;5002447;28;20516;-66
2023/05/26 04:51:22;;;;;;;0.40;0.40;;;10.40;99.90;;;;;;5002957;28;20156;-66
2023/05/26 04:53:48;;;;;;;0.40;0.40;;;10.40;99.90;;;;;;5000699;28;20114;-66
2023/05/26 04:56:14;;;;;;;0.00;0.00;;;10.50;99.90;;;;;;5000842;28;20713;-66
2023/05/26 04:58:40;;;;;;;0.10;0.10;;;10.60;99.90;;;;;;5000226;28;20154;-66
2023/05/26 05:01:05;;;;;;;0.10;0.10;;;10.60;99.90;;;;;;5006006;28;20052;-66
2023/05/26 05:03:34;;;;;;;0.17;0.17;;;10.60;99.90;;;;;;4999408;28;20118;-66
2023/05/26 05:06:00;;;;;;;1.55;1.20;;;10.70;99.90;;;;;;5008546;28;20129;-65
2023/05/26 05:08:26;;;;;;;0.38;0.38;;;10.80;99.90;;;;;;5008900;28;20077;-66
2023/05/26 05:10:52;;;;;;;0.00;0.00;;;10.80;99.90;;;;;;5001511;28;20037;-66
2023/05/26 05:13:18;;;;;;;0.77;0.47;;;10.90;99.90;;;;;;5039738;28;20046;-66
2023/05/26 05:15:43;;;;;;;2.38;1.83;;;10.90;99.90;;;;;;5008629;28;20060;-66
2023/05/26 05:18:09;;;;;;;0.40;0.40;;;10.90;99.90;;;;;;5008261;28;20045;-66
2023/05/26 05:20:35;;;;;;;0.10;0.10;;;11.00;99.90;;;;;;5011684;28;20053;-66
2023/05/26 05:23:00;;;;;;;2.92;1.60;;;11.00;99.90;;;;;;5010277;28;20077;-66
2023/05/26 05:25:26;;;;;;;0.20;0.20;;;11.00;99.90;;;;;;5008247;28;20035;-66
2023/05/26 05:27:51;;;;;;;0.57;0.32;;;11.10;99.90;;;;;;5003995;28;20056;-66
2023/05/26 05:30:18;;;;;;;0.10;0.10;;;11.20;99.90;;;;;;5007515;28;20124;-66
2023/05/26 05:32:44;;;;;;;0.47;0.47;;;11.20;99.90;;;;;;5001851;28;20046;-66
2023/05/26 05:35:10;;;;;;;0.68;0.68;;;11.20;99.90;;;;;;5003304;28;20115;-66
2023/05/26 05:37:36;;;;;;;0.10;0.10;;;11.30;99.90;;;;;;5013440;28;20046;-66
2023/05/26 05:40:02;;;;;;;0.40;0.40;;;11.30;99.90;;;;;;5016120;28;20038;-66
2023/05/26 05:42:28;;;;;;;0.17;0.17;;;11.40;99.90;;;;;;5006900;28;20049;-67
2023/05/26 05:44:54;;;;;;;0.10;0.10;;;11.40;99.90;;;;;;5003555;28;20038;-66
2023/05/26 05:47:19;;;;;;;1.17;1.17;;;11.50;99.90;;;;;;5007831;28;20041;-66
2023/05/26 05:49:45;;;;;;;0.10;0.10;;;11.50;99.90;;;;;;5007731;28;20042;-66
2023/05/26 05:52:10;;;;;;;0.10;0.10;;;11.50;99.90;;;;;;5006056;28;20046;-66
2023/05/26 05:54:36;;;;;;;1.35;0.85;;;11.60;99.90;;;;;;5001649;28;20376;-66
2023/05/26 05:57:02;;;;;;;0.10;0.10;;;11.60;99.90;;;;;;5008350;28;20080;-66
2023/05/26 05:59:28;;;;;;;8.38;0.63;;;11.60;99.90;;;;;;5009512;28;20049;-65
2023/05/26 06:01:53;;;;;;;1.45;1.35;;;11.70;99.90;;;;;;4996283;28;20050;-66
2023/05/26 06:04:19;;;;;;;0.50;0.50;;;11.70;99.90;;;;;;5001669;28;20417;-66
2023/05/26 06:06:45;;;;;;;0.10;0.10;;;11.80;99.90;;;;;;5005649;28;20034;-66
2023/05/26 06:09:11;;;;;;;0.10;0.10;;;11.80;99.90;;;;;;5005482;28;20052;-66
2023/05/26 06:11:37;;;;;;;0.10;0.10;;;11.80;99.90;;;;;;5014928;28;20038;-66
2023/05/26 06:14:03;;;;;;;0.08;0.08;;;11.90;99.90;;;;;;5005852;28;20072;-66
2023/05/26 06:16:28;;;;;;;0.10;0.10;;;11.90;99.90;;;;;;5001313;28;20398;-66
2023/05/26 06:18:54;;;;;;;0.17;0.17;;;11.90;99.90;;;;;;5000835;28;20374;-66
2023/05/26 06:21:19;;;;;;;0.10;0.10;;;11.90;99.90;;;;;;5007603;28;20038;-66
2023/05/26 06:23:45;;;;;;;0.10;0.10;;;12.00;99.90;;;;;;5004402;28;20038;-66
2023/05/26 06:26:11;;;;;;;0.15;0.15;;;12.10;99.90;;;;;;4996668;28;20053;-67
2023/05/26 06:28:36;;;;;;;0.22;0.17;;;12.10;99.90;;;;;;5003446;28;20058;-66
2023/05/26 06:31:02;;;;;;;2.25;0.38;;;12.10;99.90;;;;;;4992205;28;20486;-66
2023/05/26 06:33:27;;;;;;;1.17;1.13;;;12.20;99.90;;;;;;5000679;28;20124;-66
2023/05/26 06:35:53;;;;;;;0.10;0.10;;;12.20;99.90;;;;;;5002662;28;20049;-66
2023/05/26 06:38:18;;;;;;;3.50;2.38;;;12.30;99.90;;;;;;5005103;28;20425;-66
2023/05/26 06:40:44;;;;;;;0.32;0.32;;;12.40;99.90;;;;;;5016515;28;20053;-66
2023/05/26 06:43:10;;;;;;;0.35;0.35;;;12.40;99.90;;;;;;5017838;28;20651;-66
2023/05/26 06:45:35;;;;;;;0.50;0.50;;;12.50;99.90;;;;;;4997592;28;20077;-66
2023/05/26 06:48:01;;;;;;;1.65;1.02;;;12.60;99.90;;;;;;5008780;28;20053;-66
2023/05/26 06:50:26;;;;;;;0.75;0.75;;;12.60;99.90;;;;;;5018450;28;20125;-66
2023/05/26 06:52:52;;;;;;;0.20;0.20;;;12.70;99.90;;;;;;4999664;28;20042;-66
2023/05/26 06:55:19;;;;;;;2.10;1.90;;;12.70;99.90;;;;;;5000204;28;20056;-66
2023/05/26 06:57:45;;;;;;;0.95;0.95;;;12.80;99.90;;;;;;5030933;28;20057;-66
2023/05/26 07:00:11;;;;;;;0.65;0.65;;;12.80;99.90;;;;;;5008545;28;20401;-66
2023/05/26 07:02:36;;;;;;;0.10;0.10;;;12.80;99.90;;;;;;5002752;28;20069;-66
2023/05/26 07:05:03;;;;;;;1.25;1.15;;;12.80;99.90;;;;;;5003239;28;20159;-65
2023/05/26 07:07:28;;;;;;;1.35;0.52;;;12.80;99.90;;;;;;4999368;28;20053;-66
2023/05/26 07:09:55;;;;;;;0.70;0.30;;;12.90;99.90;;;;;;5013844;28;20137;-65
2023/05/26 07:12:21;;;;;;;0.30;0.30;;;13.00;99.90;;;;;;5007534;28;20053;-65
2023/05/26 07:14:46;;;;;;;0.13;0.13;;;13.00;99.90;;;;;;5007935;28;20038;-66
2023/05/26 07:17:12;;;;;;;0.45;0.45;;;13.10;99.90;;;;;;4998223;28;20045;-66
2023/05/26 07:19:38;;;;;;;0.25;0.25;;;13.10;99.90;;;;;;5006816;28;20045;-66
2023/05/26 07:22:04;;;;;;;4.55;1.10;;;13.20;99.90;;;;;;5033576;28;20398;-66
2023/05/26 07:24:29;;;;;;;0.03;0.03;;;13.10;99.90;;;;;;5001479;28;20129;-66
2023/05/26 07:26:55;;;;;;;0.10;0.10;;;13.20;99.90;;;;;;5005025;28;20465;-66
2023/05/26 07:29:21;;;;;;;0.43;0.43;;;13.30;99.90;;;;;;5000991;28;20062;-66
2023/05/26 07:31:46;;;;;;;0.00;0.00;;;13.30;99.90;;;;;;5005556;28;20085;-66
2023/05/26 07:34:12;;;;;;;0.10;0.10;;;13.40;99.90;;;;;;4996507;28;20073;-66
2023/05/26 07:36:38;;;;;;;1.15;0.95;;;13.50;99.90;;;;;;4992937;28;20125;-66
2023/05/26 07:39:04;;;;;;;3.33;1.92;;;13.60;99.90;;;;;;5001939;28;20049;-66
2023/05/26 07:41:29;;;;;;;0.00;0.00;;;13.60;99.90;;;;;;5006261;28;20039;-65
2023/05/26 07:43:55;;;;;;;0.98;0.55;;;13.70;99.90;;;;;;5009151;28;20096;-66
2023/05/26 07:46:21;;;;;;;0.10;0.10;;;13.70;99.90;;;;;;5000043;28;20046;-65
2023/05/26 07:48:48;;;;;;;0.88;0.75;;;13.70;99.90;;;;;;5017819;28;20038;-65
2023/05/26 07:51:14;;;;;;;0.22;0.22;;;13.80;99.90;;;;;;5010774;28;20555;-65
2023/05/26 07:53:40;;;;;;;0.57;0.57;;;13.80;99.90;;;;;;5007991;28;20046;-65
2023/05/26 07:56:06;;;;;;;17.20;0.55;;;13.90;99.90;;;;;;5004665;28;20125;-65
2023/05/26 07:58:31;;;;;;;0.10;0.10;;;13.90;99.90;;;;;;5015237;28;20445;-65
2023/05/26 08:00:57;;;;;;;0.20;0.20;;;13.90;99.90;;;;;;5009026;28;20050;-65
2023/05/26 08:03:23;;;;;;;0.00;0.00;;;13.90;99.90;;;;;;5005146;28;20049;-65
2023/05/26 08:05:48;;;;;;;0.35;0.35;;;14.00;99.90;;;;;;5008447;28;20056;-65
2023/05/26 08:08:14;;;;;;;0.80;0.57;;;14.10;99.90;;;;;;5011362;28;20120;-65
2023/05/26 08:10:40;;;;;;;1.05;0.68;;;14.00;99.90;;;;;;5001755;28;20046;-66
2023/05/26 08:13:05;;;;;;;7.22;1.20;;;14.20;99.90;;;;;;5002274;28;20049;-65
2023/05/26 08:15:31;;;;;;;0.00;0.00;;;14.20;99.90;;;;;;4995228;28;20050;-65
2023/05/26 08:17:57;;;;;;;0.10;0.10;;;14.30;99.90;;;;;;5003139;28;20049;-66
2023/05/26 08:20:22;;;;;;;2.92;1.85;;;14.30;99.90;;;;;;5013825;28;20517;-65
2023/05/26 08:22:48;;;;;;;1.52;1.38;;;14.40;99.90;;;;;;5014513;28;20036;-65
2023/05/26 08:25:13;;;;;;;0.20;0.20;;;14.40;99.90;;;;;;5003635;28;20126;-64
2023/05/26 08:27:40;;;;;;;0.60;0.60;;;14.50;99.90;;;;;;5007943;28;20057;-65
2023/05/26 08:30:06;;;;;;;0.57;0.57;;;14.50;99.90;;;;;;5008201;28;20060;-65
2023/05/26 08:32:33;;;;;;;2.13;1.30;;;14.70;99.90;;;;;;5008754;28;20046;-65
2023/05/26 08:34:59;;;;;;;0.10;0.10;;;14.60;99.90;;;;;;4998626;28;20481;-66
2023/05/26 08:37:25;;;;;;;2.72;0.90;;;14.70;99.90;;;;;;5009747;28;20061;-65
2023/05/26 08:39:50;;;;;;;0.50;0.50;;;14.80;99.90;;;;;;5022215;28;20557;-65
2023/05/26 08:42:19;;;;;;;0.10;0.10;;;14.90;99.90;;;;;;5013961;28;20046;-66
2023/05/26 08:44:45;;;;;;;0.00;0.00;;;14.80;99.90;;;;;;5003021;28;20042;-65
2023/05/26 08:47:12;;;;;;;0.03;0.03;;;14.80;99.90;;;;;;5012303;28;20038;-65
2023/05/26 08:49:49;;;;;;;0.10;0.10;;;14.90;99.90;;;;;;5010690;28;20046;-66
2023/05/26 08:52:16;;;;;;;0.20;0.20;;;14.90;99.90;;;;;;5001349;28;20104;-65
2023/05/26 08:54:43;;;;;;;1.38;0.80;;;15.00;99.90;;;;;;5010465;28;20053;-65
2023/05/26 08:57:10;;;;;;;0.10;0.10;;;15.00;99.90;;;;;;5013283;28;20045;-66
2023/05/26 08:59:36;;;;;;;0.00;0.00;;;15.00;99.90;;;;;;5016729;28;20038;-64
2023/05/26 09:02:02;;;;;;;0.93;0.93;;;15.10;99.90;;;;;;4998380;28;20049;-64
2023/05/26 09:04:31;;;;;;;0.43;0.43;;;15.10;99.90;;;;;;5016908;28;20045;-65
2023/05/26 09:06:57;;;;;;;0.40;0.40;;;15.20;99.90;;;;;;5008241;28;20042;-65
2023/05/26 09:09:23;;;;;;;0.20;0.20;;;15.20;99.90;;;;;;5016960;28;20149;-64
2023/05/26 09:11:49;;;;;;;0.00;0.00;;;15.30;99.90;;;;;;5040404;28;20514;-65
2023/05/26 09:14:16;;;;;;;0.10;0.10;;;15.30;99.90;;;;;;5009337;28;20045;-64
2023/05/26 09:16:43;;;;;;;1.55;1.13;;;15.40;99.90;;;;;;4997221;28;20041;-64
2023/05/26 09:19:14;;;;;;;10.88;0.73;;;15.40;99.90;;;;;;5006809;28;20065;-64
2023/05/26 09:21:46;;;;;;;1.40;1.30;;;15.50;99.90;;;;;;4995801;28;20056;-64
2023/05/26 09:24:15;;;;;;;0.93;0.63;;;15.50;99.90;;;;;;5006663;28;20095;-64
2023/05/26 09:26:41;;;;;;;0.10;0.10;;;15.60;99.90;;;;;;5011106;28;20034;-64
2023/05/26 09:29:07;;;;;;;0.10;0.10;;;15.60;99.90;;;;;;5003211;28;20410;-64
2023/05/26 09:31:39;;;;;;;0.20;0.20;;;15.70;99.90;;;;;;5003275;28;20030;-63
2023/05/26 09:34:06;;;;;;;0.10;0.10;;;15.80;99.90;;;;;;5007288;28;20065;-64
2023/05/26 09:36:34;;;;;;;0.10;0.10;;;15.90;99.90;;;;;;5015233;28;20127;-64
2023/05/26 09:39:01;;;;;;;0.10;0.10;;;16.00;99.90;;;;;;5006067;28;20046;-64
2023/05/26 09:41:37;;;;;;;0.57;0.57;;;16.40;99.90;;;;;;5014375;28;20133;-64
2023/05/26 09:44:16;;;;;;;0.22;0.22;;;16.80;99.90;;;;;;5004871;28;20050;-64
2023/05/26 09:46:43;;;;;;;0.22;0.22;;;17.10;99.90;;;;;;5016514;28;20402;-64
2023/05/26 09:49:14;;;;;;;0.00;0.00;;;17.40;99.90;;;;;;5001503;28;20485;-64
2023/05/26 09:51:44;;;;;;;0.57;0.57;;;17.50;99.90;;;;;;5006042;28;20092;-64
2023/05/26 09:54:10;;;;;;;0.20;0.20;;;17.80;99.90;;;;;;5013041;28;20050;-64
2023/05/26 09:56:52;;;;;;;0.90;0.85;;;17.90;99.90;;;;;;5008036;28;20371;-64
2023/05/26 09:59:21;;;;;;;0.88;0.88;;;18.00;99.90;;;;;;5010823;28;20045;-64
2023/05/26 10:01:48;;;;;;;0.30;0.30;;;18.20;99.90;;;;;;5001323;28;20052;-64
2023/05/26 10:04:15;;;;;;;0.85;0.52;;;18.30;99.90;;;;;;5003581;28;20568;-64
2023/05/26 10:06:41;;;;;;;0.00;0.00;;;18.50;99.90;;;;;;5002900;28;20117;-64
2023/05/26 10:09:07;;;;;;;0.00;0.00;;;18.50;99.90;;;;;;4999176;28;20162;-64
2023/05/26 10:11:39;;;;;;;0.57;0.57;;;18.50;99.90;;;;;;5003582;28;20041;-64
2023/05/26 10:14:05;;;;;;;1.30;1.02;;;18.40;99.90;;;;;;5003334;28;20049;-64
2023/05/26 10:16:32;;;;;;;0.03;0.03;;;18.60;99.90;;;;;;5002983;28;20046;-64
2023/05/26 10:18:58;;;;;;;0.30;0.30;;;18.40;99.90;;;;;;5002592;28;20092;-64
2023/05/26 10:21:31;;;;;;;0.10;0.10;;;18.40;99.90;;;;;;5003697;28;20038;-65
2023/05/26 10:24:17;;;;;;;;;;;18.30;99.90;;;;;;4995690;28;20050;-64
2023/05/26 10:26:58;;;;;;;0.00;0.00;;;18.40;99.90;;;;;;4998939;28;19975;-65
2023/05/26 10:29:39;;;;;;;0.00;0.00;;;18.60;99.90;;;;;;5002385;28;20098;-64
2023/05/26 10:32:05;;;;;;;1.30;1.05;;;18.70;99.90;;;;;;5001714;28;20121;-64
2023/05/26 10:34:42;;;;;;;0.20;0.20;;;18.60;99.90;;;;;;5004067;28;20129;-64
2023/05/26 10:37:16;;;;;;;0.43;0.43;;;18.10;99.90;;;;;;5000425;28;20445;-65
2023/05/26 10:39:41;;;;;;;0.30;0.30;;;18.20;99.90;;;;;;5004346;28;20050;-68
2023/05/26 10:42:20;;;;;;;0.50;0.50;;;18.30;99.90;;;;;;5002853;28;20046;-64
2023/05/26 10:44:51;;;;;;;2.63;0.55;;;18.50;99.90;;;;;;5001938;28;20069;-65
2023/05/26 10:47:18;;;;;;;0.20;0.20;;;18.30;99.90;;;;;;5009924;28;20049;-65
2023/05/26 10:49:58;;;;;;;0.10;0.10;;;18.50;99.90;;;;;;5006556;28;20042;-65
2023/05/26 10:52:45;;;;;;;0.73;0.25;;;18.60;99.90;;;;;;5023049;28;20049;-65
2023/05/26 10:55:28;;;;;;;0.88;0.63;;;18.70;99.90;;;;;;5003014;28;20054;-65
2023/05/26 10:57:54;;;;;;;7.25;0.43;;;18.80;99.90;;;;;;5014583;28;20394;-65
2023/05/26 11:00:26;;;;;;;0.28;0.28;;;18.80;99.80;;;;;;5011767;28;20042;-66
2023/05/26 11:02:51;;;;;;;4.40;1.75;;;19.00;99.90;;;;;;5001280;28;20256;-65
2023/05/26 11:05:33;;;;;;;0.10;0.10;;;19.00;99.90;;;;;;5008757;28;20120;-65
2023/05/26 11:07:59;;;;;;;1.85;1.02;;;19.10;99.90;;;;;;5008216;28;20042;-65
2023/05/26 11:10:25;;;;;;;0.13;0.13;;;19.10;99.70;;;;;;5007152;28;20036;-65
2023/05/26 11:12:54;;;;;;;1.10;1.00;;;19.30;99.90;;;;;;5004266;28;20041;-65
2023/05/26 11:15:33;;;;;;;0.00;0.00;;;19.40;99.80;;;;;;5008058;28;20069;-65
2023/05/26 11:18:09;;;;;;;0.30;0.30;;;19.40;99.90;;;;;;5007724;28;20142;-65
2023/05/26 11:20:35;;;;;;;6.97;1.65;;;19.30;99.90;;;;;;5007653;28;20042;-66
2023/05/26 11:23:03;;;;;;;24.35;0.50;;;19.20;99.90;;;;;;5010197;28;20074;-66
2023/05/26 11:25:28;;;;;;;0.00;0.00;;;19.20;99.10;;;;;;5007397;28;20050;-66
2023/05/26 11:27:54;;;;;;;0.35;0.35;;;19.40;98.50;;;;;;5010461;28;20149;-65
2023/05/26 11:30:21;;;;;;;1.80;1.70;;;19.60;99.60;;;;;;5002928;28;20042;-65
2023/05/26 11:32:48;;;;;;;2.75;1.17;;;19.80;99.80;;;;;;5007900;28;20115;-66
2023/05/26 11:35:24;;;;;;;0.43;0.43;;;19.90;99.40;;;;;;5011229;28;20450;-65
2023/05/26 11:37:50;;;;;;;0.52;0.52;;;19.80;99.40;;;;;;5008232;28;20129;-66
2023/05/26 11:40:16;;;;;;;0.22;0.22;;;19.20;99.90;;;;;;5001313;28;20128;-65
2023/05/26 11:42:45;;;;;;;0.05;0.05;;;19.50;99.20;;;;;;5000394;28;20137;-65
2023/05/26 11:45:11;;;;;;;2.50;1.02;;;19.90;98.80;;;;;;5010510;28;20046;-65
2023/05/26 11:47:36;;;;;;;0.30;0.30;;;19.80;98.40;;;;;;4998133;28;20120;-66
2023/05/26 11:50:09;;;;;;;0.52;0.45;;;19.90;99.90;;;;;;5013345;28;20045;-66
2023/05/26 11:52:41;;;;;;;2.72;1.38;;;20.00;99.40;;;;;;5014071;28;20053;-66
2023/05/26 11:55:10;;;;;;;0.85;0.65;;;20.10;99.30;;;;;;5009524;28;20061;-66
2023/05/26 11:57:36;;;;;;;0.38;0.38;;;19.80;98.80;;;;;;5009816;28;20058;-66
2023/05/26 12:00:09;;;;;;;8.95;0.77;;;19.90;99.80;;;;;;5045073;28;20053;-66
2023/05/26 12:02:35;;;;;;;0.00;0.00;;;19.90;99.10;;;;;;5047965;28;20053;-65
2023/05/26 12:05:20;;;;;;;0.00;0.00;;;20.30;99.00;;;;;;5009549;28;20125;-66
2023/05/26 12:07:59;;;;;;;1.10;1.10;;;19.90;99.90;;;;;;5001205;28;20050;-66
2023/05/26 12:10:28;;;;;;;0.00;0.00;;;20.40;99.70;;;;;;5009192;28;20034;-65
2023/05/26 12:12:54;;;;;;;0.00;0.00;;;20.60;99.00;;;;;;5011344;28;20038;-65
2023/05/26 12:15:21;;;;;;;0.10;0.10;;;20.60;99.00;;;;;;5000945;28;20477;-66
2023/05/26 12:17:47;;;;;;;0.03;0.03;;;20.00;98.20;;;;;;5009306;28;20042;-66
2023/05/26 12:20:17;;;;;;;0.38;0.38;;;20.30;98.40;;;;;;5014321;28;20041;-66
2023/05/26 12:22:43;;;;;;;0.00;0.00;;;20.30;98.10;;;;;;5010746;28;20053;-66
2023/05/26 12:25:09;;;;;;;5.30;2.42;;;19.60;98.60;;;;;;5005408;28;20041;-66
2023/05/26 12:27:36;;;;;;;2.60;2.05;;;19.90;99.90;;;;;;5027415;28;20054;-65
2023/05/26 12:30:18;;;;;;;1.13;0.63;;;19.80;98.70;;;;;;5011104;28;20089;-65
2023/05/26 12:32:45;;;;;;;0.10;0.10;;;19.50;99.30;;;;;;5004794;28;20053;-65
2023/05/26 12:35:11;;;;;;;0.40;0.40;;;19.50;99.90;;;;;;5023605;28;20053;-66
2023/05/26 12:37:37;;;;;;;2.00;0.68;;;19.10;99.90;;;;;;5022068;28;20756;-65
2023/05/26 12:40:04;;;;;;;3.20;2.00;;;18.90;99.90;;;;;;5011344;28;20062;-65
2023/05/26 12:42:29;;;;;;;0.10;0.10;;;18.70;99.90;;;;;;5014115;28;20499;-65
2023/05/26 12:44:55;;;;;;;0.00;0.00;;;18.70;99.90;;;;;;5017134;28;20129;-65
2023/05/26 12:47:20;;;;;;;0.30;0.30;;;18.60;99.90;;;;;;5009130;28;20410;-65
2023/05/26 12:49:46;;;;;;;0.30;0.30;;;18.40;99.90;;;;;;4997772;28;20057;-66